sensor_id;sensor_type;location;lat;lon;timestamp;P1;durP1;ratioP1;P2;durP2;ratioP2
62796;SDS011;48839;48.546;-4.178;2023-08-17T00:00:44;3.42;;;3.00;;
62796;SDS011;48839;48.546;-4.178;2023-08-17T00:03:10;6.10;;;3.10;;
62796;SDS011;48839;48.546;-4.178;2023-08-17T00:05:36;4.72;;;2.72;;
62796;SDS011;48839;48.546;-4.178;2023-08-17T00:08:02;7.22;;;3.30;;
62796;SDS011;48839;48.546;-4.178;2023-08-17T00:10:28;19.80;;;3.78;;
62796;SDS011;48839;48.546;-4.178;2023-08-17T00:12:54;18.17;;;3.75;;
62796;SDS011;48839;48.546;-4.178;2023-08-17T00:15:20;10.48;;;3.45;;
62796;SDS011;48839;48.546;-4.178;2023-08-17T00:17:46;5.55;;;2.63;;
62796;SDS011;48839;48.546;-4.178;2023-08-17T00:20:12;5.75;;;3.55;;
62796;SDS011;48839;48.546;-4.178;2023-08-17T00:22:38;5.28;;;3.47;;
62796;SDS011;48839;48.546;-4.178;2023-08-17T00:25:04;4.78;;;3.33;;
62796;SDS011;48839;48.546;-4.178;2023-08-17T00:27:33;4.72;;;3.35;;
62796;SDS011;48839;48.546;-4.178;2023-08-17T00:29:59;5.57;;;4.22;;
62796;SDS011;48839;48.546;-4.178;2023-08-17T00:32:25;4.57;;;3.13;;
62796;SDS011;48839;48.546;-4.178;2023-08-17T00:34:51;4.97;;;3.95;;
62796;SDS011;48839;48.546;-4.178;2023-08-17T00:37:17;6.32;;;3.92;;
62796;SDS011;48839;48.546;-4.178;2023-08-17T00:39:43;4.20;;;3.10;;
62796;SDS011;48839;48.546;-4.178;2023-08-17T00:42:09;4.00;;;3.20;;
62796;SDS011;48839;48.546;-4.178;2023-08-17T00:44:35;6.40;;;3.70;;
62796;SDS011;48839;48.546;-4.178;2023-08-17T00:47:01;5.20;;;3.78;;
62796;SDS011;48839;48.546;-4.178;2023-08-17T00:49:27;4.70;;;3.05;;
62796;SDS011;48839;48.546;-4.178;2023-08-17T00:51:54;4.40;;;3.47;;
62796;SDS011;48839;48.546;-4.178;2023-08-17T00:54:22;7.93;;;4.88;;
62796;SDS011;48839;48.546;-4.178;2023-08-17T00:56:49;6.63;;;3.45;;
62796;SDS011;48839;48.546;-4.178;2023-08-17T00:59:15;7.28;;;4.30;;
62796;SDS011;48839;48.546;-4.178;2023-08-17T01:01:41;7.88;;;3.60;;
62796;SDS011;48839;48.546;-4.178;2023-08-17T01:04:08;7.07;;;3.55;;
62796;SDS011;48839;48.546;-4.178;2023-08-17T01:06:34;6.53;;;3.60;;
62796;SDS011;48839;48.546;-4.178;2023-08-17T01:09:00;6.03;;;3.70;;
62796;SDS011;48839;48.546;-4.178;2023-08-17T01:11:28;5.85;;;3.85;;
62796;SDS011;48839;48.546;-4.178;2023-08-17T01:13:57;6.00;;;4.28;;
62796;SDS011;48839;48.546;-4.178;2023-08-17T01:16:27;3.78;;;3.10;;
62796;SDS011;48839;48.546;-4.178;2023-08-17T01:18:54;4.68;;;3.53;;
62796;SDS011;48839;48.546;-4.178;2023-08-17T01:21:21;4.32;;;2.92;;
62796;SDS011;48839;48.546;-4.178;2023-08-17T01:23:49;6.18;;;3.10;;
62796;SDS011;48839;48.546;-4.178;2023-08-17T01:26:15;3.20;;;2.60;;
62796;SDS011;48839;48.546;-4.178;2023-08-17T01:28:42;8.00;;;3.85;;
62796;SDS011;48839;48.546;-4.178;2023-08-17T01:31:11;4.82;;;3.47;;
62796;SDS011;48839;48.546;-4.178;2023-08-17T01:33:42;4.35;;;3.03;;
62796;SDS011;48839;48.546;-4.178;2023-08-17T01:36:17;5.22;;;4.05;;
62796;SDS011;48839;48.546;-4.178;2023-08-17T01:38:44;7.93;;;4.30;;
62796;SDS011;48839;48.546;-4.178;2023-08-17T01:41:10;6.82;;;3.53;;
62796;SDS011;48839;48.546;-4.178;2023-08-17T01:43:38;8.50;;;4.13;;
62796;SDS011;48839;48.546;-4.178;2023-08-17T01:46:05;5.43;;;3.78;;
62796;SDS011;48839;48.546;-4.178;2023-08-17T01:48:31;7.45;;;4.13;;
62796;SDS011;48839;48.546;-4.178;2023-08-17T01:50:56;6.95;;;4.35;;
62796;SDS011;48839;48.546;-4.178;2023-08-17T01:53:22;5.80;;;3.70;;
62796;SDS011;48839;48.546;-4.178;2023-08-17T01:55:48;5.95;;;4.13;;
62796;SDS011;48839;48.546;-4.178;2023-08-17T01:58:14;5.65;;;3.75;;
62796;SDS011;48839;48.546;-4.178;2023-08-17T02:00:41;7.00;;;4.32;;
62796;SDS011;48839;48.546;-4.178;2023-08-17T02:03:07;5.68;;;3.80;;
62796;SDS011;48839;48.546;-4.178;2023-08-17T02:05:33;5.05;;;3.78;;
62796;SDS011;48839;48.546;-4.178;2023-08-17T02:07:59;5.47;;;3.72;;
62796;SDS011;48839;48.546;-4.178;2023-08-17T02:10:25;5.05;;;3.83;;
62796;SDS011;48839;48.546;-4.178;2023-08-17T02:12:51;4.25;;;2.95;;
62796;SDS011;48839;48.546;-4.178;2023-08-17T02:15:17;5.70;;;3.60;;
62796;SDS011;48839;48.546;-4.178;2023-08-17T02:17:43;5.22;;;3.30;;
62796;SDS011;48839;48.546;-4.178;2023-08-17T02:20:09;6.55;;;3.58;;
62796;SDS011;48839;48.546;-4.178;2023-08-17T02:22:35;5.28;;;3.65;;
62796;SDS011;48839;48.546;-4.178;2023-08-17T02:25:01;4.25;;;3.22;;
62796;SDS011;48839;48.546;-4.178;2023-08-17T02:27:27;4.68;;;3.42;;
62796;SDS011;48839;48.546;-4.178;2023-08-17T02:29:56;4.72;;;3.65;;
62796;SDS011;48839;48.546;-4.178;2023-08-17T02:32:22;4.28;;;3.05;;
62796;SDS011;48839;48.546;-4.178;2023-08-17T02:34:48;5.63;;;3.28;;
62796;SDS011;48839;48.546;-4.178;2023-08-17T02:37:14;5.65;;;3.20;;
62796;SDS011;48839;48.546;-4.178;2023-08-17T02:39:40;5.07;;;3.45;;
62796;SDS011;48839;48.546;-4.178;2023-08-17T02:42:06;6.50;;;3.25;;
62796;SDS011;48839;48.546;-4.178;2023-08-17T02:44:32;3.78;;;2.75;;
62796;SDS011;48839;48.546;-4.178;2023-08-17T02:46:58;5.68;;;3.60;;
62796;SDS011;48839;48.546;-4.178;2023-08-17T02:49:24;6.80;;;3.83;;
62796;SDS011;48839;48.546;-4.178;2023-08-17T02:51:50;7.60;;;3.80;;
62796;SDS011;48839;48.546;-4.178;2023-08-17T02:54:16;6.57;;;3.92;;
62796;SDS011;48839;48.546;-4.178;2023-08-17T02:56:42;4.18;;;3.08;;
62796;SDS011;48839;48.546;-4.178;2023-08-17T02:59:08;6.80;;;3.40;;
62796;SDS011;48839;48.546;-4.178;2023-08-17T03:01:34;5.30;;;3.42;;
62796;SDS011;48839;48.546;-4.178;2023-08-17T03:04:01;2.92;;;2.60;;
62796;SDS011;48839;48.546;-4.178;2023-08-17T03:06:27;5.40;;;2.28;;
62796;SDS011;48839;48.546;-4.178;2023-08-17T03:08:53;1.75;;;1.65;;
62796;SDS011;48839;48.546;-4.178;2023-08-17T03:11:20;2.22;;;2.03;;
62796;SDS011;48839;48.546;-4.178;2023-08-17T03:13:46;2.65;;;2.13;;
62796;SDS011;48839;48.546;-4.178;2023-08-17T03:16:13;2.05;;;1.88;;
62796;SDS011;48839;48.546;-4.178;2023-08-17T03:18:39;2.10;;;1.90;;
62796;SDS011;48839;48.546;-4.178;2023-08-17T03:21:05;3.85;;;2.15;;
62796;SDS011;48839;48.546;-4.178;2023-08-17T03:23:32;4.68;;;2.70;;
62796;SDS011;48839;48.546;-4.178;2023-08-17T03:25:58;5.30;;;3.17;;
62796;SDS011;48839;48.546;-4.178;2023-08-17T03:28:24;4.90;;;3.35;;
62796;SDS011;48839;48.546;-4.178;2023-08-17T03:30:54;4.95;;;3.70;;
62796;SDS011;48839;48.546;-4.178;2023-08-17T03:33:20;19.25;;;5.20;;
62796;SDS011;48839;48.546;-4.178;2023-08-17T03:35:46;20.75;;;3.58;;
62796;SDS011;48839;48.546;-4.178;2023-08-17T03:38:12;23.88;;;3.70;;
62796;SDS011;48839;48.546;-4.178;2023-08-17T03:40:38;47.90;;;5.90;;
62796;SDS011;48839;48.546;-4.178;2023-08-17T03:43:04;13.77;;;2.30;;
62796;SDS011;48839;48.546;-4.178;2023-08-17T03:45:30;8.85;;;2.75;;
62796;SDS011;48839;48.546;-4.178;2023-08-17T03:47:56;10.40;;;2.53;;
62796;SDS011;48839;48.546;-4.178;2023-08-17T03:50:22;3.65;;;2.60;;
62796;SDS011;48839;48.546;-4.178;2023-08-17T03:52:48;7.35;;;3.50;;
62796;SDS011;48839;48.546;-4.178;2023-08-17T03:55:14;19.25;;;3.75;;
62796;SDS011;48839;48.546;-4.178;2023-08-17T03:57:40;9.02;;;2.80;;
62796;SDS011;48839;48.546;-4.178;2023-08-17T04:00:06;29.15;;;3.95;;
62796;SDS011;48839;48.546;-4.178;2023-08-17T04:02:33;4.68;;;2.38;;
62796;SDS011;48839;48.546;-4.178;2023-08-17T04:04:59;18.83;;;3.70;;
62796;SDS011;48839;48.546;-4.178;2023-08-17T04:07:25;5.90;;;3.35;;
62796;SDS011;48839;48.546;-4.178;2023-08-17T04:09:51;7.65;;;5.07;;
62796;SDS011;48839;48.546;-4.178;2023-08-17T04:12:17;10.02;;;4.90;;
62796;SDS011;48839;48.546;-4.178;2023-08-17T04:14:43;12.05;;;5.50;;
62796;SDS011;48839;48.546;-4.178;2023-08-17T04:17:10;11.00;;;4.55;;
62796;SDS011;48839;48.546;-4.178;2023-08-17T04:19:36;8.98;;;3.83;;
62796;SDS011;48839;48.546;-4.178;2023-08-17T04:22:02;11.18;;;4.22;;
62796;SDS011;48839;48.546;-4.178;2023-08-17T04:24:28;6.00;;;3.35;;
62796;SDS011;48839;48.546;-4.178;2023-08-17T04:26:54;13.23;;;5.00;;
62796;SDS011;48839;48.546;-4.178;2023-08-17T04:29:20;8.68;;;4.10;;
62796;SDS011;48839;48.546;-4.178;2023-08-17T04:31:46;11.52;;;4.97;;
62796;SDS011;48839;48.546;-4.178;2023-08-17T04:34:12;12.13;;;5.15;;
62796;SDS011;48839;48.546;-4.178;2023-08-17T04:36:38;9.52;;;4.90;;
62796;SDS011;48839;48.546;-4.178;2023-08-17T04:39:04;12.13;;;5.28;;
62796;SDS011;48839;48.546;-4.178;2023-08-17T04:41:30;10.10;;;5.75;;
62796;SDS011;48839;48.546;-4.178;2023-08-17T04:43:56;14.02;;;5.43;;
62796;SDS011;48839;48.546;-4.178;2023-08-17T04:46:22;8.85;;;5.05;;
62796;SDS011;48839;48.546;-4.178;2023-08-17T04:48:48;24.30;;;5.15;;
62796;SDS011;48839;48.546;-4.178;2023-08-17T04:51:15;10.98;;;5.07;;
62796;SDS011;48839;48.546;-4.178;2023-08-17T04:53:41;10.35;;;5.10;;
62796;SDS011;48839;48.546;-4.178;2023-08-17T04:56:07;6.82;;;4.38;;
62796;SDS011;48839;48.546;-4.178;2023-08-17T04:58:33;10.55;;;4.20;;
62796;SDS011;48839;48.546;-4.178;2023-08-17T05:00:59;9.82;;;4.28;;
62796;SDS011;48839;48.546;-4.178;2023-08-17T05:03:25;11.45;;;4.63;;
62796;SDS011;48839;48.546;-4.178;2023-08-17T05:05:54;10.93;;;4.80;;
62796;SDS011;48839;48.546;-4.178;2023-08-17T05:08:20;10.25;;;4.20;;
62796;SDS011;48839;48.546;-4.178;2023-08-17T05:10:47;9.02;;;4.25;;
62796;SDS011;48839;48.546;-4.178;2023-08-17T05:13:13;8.77;;;4.28;;
62796;SDS011;48839;48.546;-4.178;2023-08-17T05:15:39;8.60;;;4.95;;
62796;SDS011;48839;48.546;-4.178;2023-08-17T05:18:05;9.43;;;4.57;;
62796;SDS011;48839;48.546;-4.178;2023-08-17T05:20:31;7.45;;;4.10;;
62796;SDS011;48839;48.546;-4.178;2023-08-17T05:22:57;9.68;;;4.20;;
62796;SDS011;48839;48.546;-4.178;2023-08-17T05:25:23;10.15;;;4.35;;
62796;SDS011;48839;48.546;-4.178;2023-08-17T05:27:51;4.72;;;3.10;;
62796;SDS011;48839;48.546;-4.178;2023-08-17T05:30:17;7.32;;;3.70;;
62796;SDS011;48839;48.546;-4.178;2023-08-17T05:32:43;8.77;;;3.92;;
62796;SDS011;48839;48.546;-4.178;2023-08-17T05:35:09;9.88;;;3.55;;
62796;SDS011;48839;48.546;-4.178;2023-08-17T05:37:35;9.45;;;3.58;;
62796;SDS011;48839;48.546;-4.178;2023-08-17T05:40:01;9.27;;;3.92;;
62796;SDS011;48839;48.546;-4.178;2023-08-17T05:42:27;6.82;;;3.63;;
62796;SDS011;48839;48.546;-4.178;2023-08-17T05:44:53;7.78;;;3.42;;
62796;SDS011;48839;48.546;-4.178;2023-08-17T05:47:19;6.90;;;3.65;;
62796;SDS011;48839;48.546;-4.178;2023-08-17T05:49:45;5.30;;;3.28;;
62796;SDS011;48839;48.546;-4.178;2023-08-17T05:52:11;6.10;;;3.75;;
62796;SDS011;48839;48.546;-4.178;2023-08-17T05:54:38;8.10;;;4.28;;
62796;SDS011;48839;48.546;-4.178;2023-08-17T05:57:04;8.38;;;3.95;;
62796;SDS011;48839;48.546;-4.178;2023-08-17T05:59:30;7.90;;;4.18;;
62796;SDS011;48839;48.546;-4.178;2023-08-17T06:01:56;10.98;;;3.70;;
62796;SDS011;48839;48.546;-4.178;2023-08-17T06:04:22;9.20;;;3.88;;
62796;SDS011;48839;48.546;-4.178;2023-08-17T06:06:48;5.90;;;3.55;;
62796;SDS011;48839;48.546;-4.178;2023-08-17T06:09:15;7.05;;;3.63;;
62796;SDS011;48839;48.546;-4.178;2023-08-17T06:11:41;8.68;;;4.13;;
62796;SDS011;48839;48.546;-4.178;2023-08-17T06:14:08;7.88;;;3.75;;
62796;SDS011;48839;48.546;-4.178;2023-08-17T06:16:34;13.88;;;4.70;;
62796;SDS011;48839;48.546;-4.178;2023-08-17T06:19:00;9.13;;;4.63;;
62796;SDS011;48839;48.546;-4.178;2023-08-17T06:21:26;7.80;;;4.65;;
62796;SDS011;48839;48.546;-4.178;2023-08-17T06:23:52;7.65;;;4.13;;
62796;SDS011;48839;48.546;-4.178;2023-08-17T06:26:18;10.68;;;4.07;;
62796;SDS011;48839;48.546;-4.178;2023-08-17T06:28:44;12.48;;;4.47;;
62796;SDS011;48839;48.546;-4.178;2023-08-17T06:31:10;21.60;;;4.50;;
62796;SDS011;48839;48.546;-4.178;2023-08-17T06:33:40;9.43;;;3.63;;
62796;SDS011;48839;48.546;-4.178;2023-08-17T06:36:06;12.30;;;4.32;;
62796;SDS011;48839;48.546;-4.178;2023-08-17T06:38:32;21.63;;;5.15;;
62796;SDS011;48839;48.546;-4.178;2023-08-17T06:40:58;11.40;;;3.60;;
62796;SDS011;48839;48.546;-4.178;2023-08-17T06:43:23;10.20;;;3.65;;
62796;SDS011;48839;48.546;-4.178;2023-08-17T06:45:49;6.82;;;3.13;;
62796;SDS011;48839;48.546;-4.178;2023-08-17T06:48:15;7.28;;;3.30;;
62796;SDS011;48839;48.546;-4.178;2023-08-17T06:50:41;4.50;;;3.05;;
62796;SDS011;48839;48.546;-4.178;2023-08-17T06:53:07;5.43;;;2.92;;
62796;SDS011;48839;48.546;-4.178;2023-08-17T06:55:34;7.07;;;3.25;;
62796;SDS011;48839;48.546;-4.178;2023-08-17T06:58:00;4.43;;;2.55;;
62796;SDS011;48839;48.546;-4.178;2023-08-17T07:00:26;8.32;;;3.10;;
62796;SDS011;48839;48.546;-4.178;2023-08-17T07:02:52;7.25;;;3.45;;
62796;SDS011;48839;48.546;-4.178;2023-08-17T07:05:18;6.05;;;2.60;;
62796;SDS011;48839;48.546;-4.178;2023-08-17T07:07:44;5.47;;;2.60;;
62796;SDS011;48839;48.546;-4.178;2023-08-17T07:10:10;6.15;;;2.67;;
62796;SDS011;48839;48.546;-4.178;2023-08-17T07:12:39;5.35;;;2.70;;
62796;SDS011;48839;48.546;-4.178;2023-08-17T07:15:06;7.28;;;2.75;;
62796;SDS011;48839;48.546;-4.178;2023-08-17T07:17:32;6.50;;;2.53;;
62796;SDS011;48839;48.546;-4.178;2023-08-17T07:20:02;4.30;;;3.05;;
62796;SDS011;48839;48.546;-4.178;2023-08-17T07:22:29;6.72;;;3.67;;
62796;SDS011;48839;48.546;-4.178;2023-08-17T07:24:55;7.25;;;4.05;;
62796;SDS011;48839;48.546;-4.178;2023-08-17T07:27:21;5.03;;;3.53;;
62796;SDS011;48839;48.546;-4.178;2023-08-17T07:29:47;5.40;;;4.20;;
62796;SDS011;48839;48.546;-4.178;2023-08-17T07:32:13;5.13;;;3.45;;
62796;SDS011;48839;48.546;-4.178;2023-08-17T07:34:39;4.15;;;3.25;;
62796;SDS011;48839;48.546;-4.178;2023-08-17T07:37:05;2.67;;;2.08;;
62796;SDS011;48839;48.546;-4.178;2023-08-17T07:39:31;2.40;;;2.00;;
62796;SDS011;48839;48.546;-4.178;2023-08-17T07:41:57;2.72;;;2.08;;
62796;SDS011;48839;48.546;-4.178;2023-08-17T07:44:23;2.25;;;2.05;;
62796;SDS011;48839;48.546;-4.178;2023-08-17T07:46:49;2.95;;;2.13;;
62796;SDS011;48839;48.546;-4.178;2023-08-17T07:49:15;3.10;;;2.22;;
62796;SDS011;48839;48.546;-4.178;2023-08-17T07:51:41;2.85;;;2.60;;
62796;SDS011;48839;48.546;-4.178;2023-08-17T07:54:08;2.88;;;2.28;;
62796;SDS011;48839;48.546;-4.178;2023-08-17T07:56:34;3.05;;;2.05;;
62796;SDS011;48839;48.546;-4.178;2023-08-17T07:59:00;3.13;;;2.25;;
62796;SDS011;48839;48.546;-4.178;2023-08-17T08:01:26;3.17;;;2.28;;
62796;SDS011;48839;48.546;-4.178;2023-08-17T08:03:52;2.38;;;1.63;;
62796;SDS011;48839;48.546;-4.178;2023-08-17T08:06:18;2.00;;;1.70;;
62796;SDS011;48839;48.546;-4.178;2023-08-17T08:08:45;2.58;;;2.03;;
62796;SDS011;48839;48.546;-4.178;2023-08-17T08:11:11;1.77;;;1.60;;
62796;SDS011;48839;48.546;-4.178;2023-08-17T08:13:37;2.60;;;1.92;;
62796;SDS011;48839;48.546;-4.178;2023-08-17T08:16:03;2.90;;;1.90;;
62796;SDS011;48839;48.546;-4.178;2023-08-17T08:18:29;3.28;;;2.05;;
62796;SDS011;48839;48.546;-4.178;2023-08-17T08:20:55;3.45;;;1.98;;
62796;SDS011;48839;48.546;-4.178;2023-08-17T08:23:21;3.63;;;1.90;;
62796;SDS011;48839;48.546;-4.178;2023-08-17T08:25:47;3.78;;;1.73;;
62796;SDS011;48839;48.546;-4.178;2023-08-17T08:28:13;3.35;;;2.00;;
62796;SDS011;48839;48.546;-4.178;2023-08-17T08:30:39;5.53;;;2.15;;
62796;SDS011;48839;48.546;-4.178;2023-08-17T08:33:05;5.38;;;1.90;;
62796;SDS011;48839;48.546;-4.178;2023-08-17T08:35:31;3.67;;;1.90;;
62796;SDS011;48839;48.546;-4.178;2023-08-17T08:37:58;2.35;;;2.08;;
62796;SDS011;48839;48.546;-4.178;2023-08-17T08:40:28;2.85;;;1.90;;
62796;SDS011;48839;48.546;-4.178;2023-08-17T08:42:57;2.70;;;1.67;;
62796;SDS011;48839;48.546;-4.178;2023-08-17T08:45:24;2.40;;;2.15;;
62796;SDS011;48839;48.546;-4.178;2023-08-17T08:47:50;3.42;;;2.42;;
62796;SDS011;48839;48.546;-4.178;2023-08-17T08:50:18;3.20;;;2.22;;
62796;SDS011;48839;48.546;-4.178;2023-08-17T08:52:47;3.38;;;2.25;;
62796;SDS011;48839;48.546;-4.178;2023-08-17T08:55:17;4.70;;;2.10;;
62796;SDS011;48839;48.546;-4.178;2023-08-17T08:57:44;1.98;;;1.70;;
62796;SDS011;48839;48.546;-4.178;2023-08-17T09:00:12;2.67;;;2.38;;
62796;SDS011;48839;48.546;-4.178;2023-08-17T09:02:38;4.63;;;2.35;;
62796;SDS011;48839;48.546;-4.178;2023-08-17T09:05:08;3.53;;;2.50;;
62796;SDS011;48839;48.546;-4.178;2023-08-17T09:07:35;3.63;;;1.90;;
62796;SDS011;48839;48.546;-4.178;2023-08-17T09:10:01;2.85;;;2.13;;
62796;SDS011;48839;48.546;-4.178;2023-08-17T09:12:28;1.92;;;1.73;;
62796;SDS011;48839;48.546;-4.178;2023-08-17T09:14:56;3.30;;;2.20;;
62796;SDS011;48839;48.546;-4.178;2023-08-17T09:17:22;1.90;;;1.55;;
62796;SDS011;48839;48.546;-4.178;2023-08-17T09:19:49;3.22;;;2.22;;
62796;SDS011;48839;48.546;-4.178;2023-08-17T09:22:21;2.22;;;1.90;;
62796;SDS011;48839;48.546;-4.178;2023-08-17T09:24:47;3.10;;;1.63;;
62796;SDS011;48839;48.546;-4.178;2023-08-17T09:27:13;3.30;;;2.35;;
62796;SDS011;48839;48.546;-4.178;2023-08-17T09:29:40;2.30;;;2.03;;
62796;SDS011;48839;48.546;-4.178;2023-08-17T09:32:10;2.28;;;2.00;;
62796;SDS011;48839;48.546;-4.178;2023-08-17T09:34:36;2.78;;;1.90;;
62796;SDS011;48839;48.546;-4.178;2023-08-17T09:37:03;2.67;;;2.03;;
62796;SDS011;48839;48.546;-4.178;2023-08-17T09:39:32;3.20;;;2.28;;
62796;SDS011;48839;48.546;-4.178;2023-08-17T09:41:59;2.33;;;2.10;;
62796;SDS011;48839;48.546;-4.178;2023-08-17T09:44:25;2.65;;;2.08;;
62796;SDS011;48839;48.546;-4.178;2023-08-17T09:46:54;3.65;;;1.90;;
62796;SDS011;48839;48.546;-4.178;2023-08-17T09:49:22;3.25;;;2.20;;
62796;SDS011;48839;48.546;-4.178;2023-08-17T09:51:49;3.17;;;2.00;;
62796;SDS011;48839;48.546;-4.178;2023-08-17T09:54:21;2.15;;;1.90;;
62796;SDS011;48839;48.546;-4.178;2023-08-17T09:56:53;2.13;;;1.92;;
62796;SDS011;48839;48.546;-4.178;2023-08-17T09:59:19;4.05;;;2.25;;
62796;SDS011;48839;48.546;-4.178;2023-08-17T10:01:47;7.55;;;2.45;;
62796;SDS011;48839;48.546;-4.178;2023-08-17T10:04:14;3.42;;;1.77;;
62796;SDS011;48839;48.546;-4.178;2023-08-17T10:06:42;2.63;;;1.70;;
62796;SDS011;48839;48.546;-4.178;2023-08-17T10:09:09;2.25;;;1.73;;
62796;SDS011;48839;48.546;-4.178;2023-08-17T10:11:36;2.08;;;1.40;;
62796;SDS011;48839;48.546;-4.178;2023-08-17T10:14:06;2.53;;;1.60;;
62796;SDS011;48839;48.546;-4.178;2023-08-17T10:16:36;3.80;;;2.03;;
62796;SDS011;48839;48.546;-4.178;2023-08-17T10:21:35;2.30;;;1.80;;
62796;SDS011;48839;48.546;-4.178;2023-08-17T10:24:02;2.90;;;1.70;;
62796;SDS011;48839;48.546;-4.178;2023-08-17T10:26:28;2.20;;;2.00;;
62796;SDS011;48839;48.546;-4.178;2023-08-17T10:28:55;2.58;;;1.90;;
62796;SDS011;48839;48.546;-4.178;2023-08-17T10:31:23;2.80;;;2.10;;
62796;SDS011;48839;48.546;-4.178;2023-08-17T10:33:49;3.97;;;2.08;;
62796;SDS011;48839;48.546;-4.178;2023-08-17T10:36:16;4.15;;;2.03;;
62796;SDS011;48839;48.546;-4.178;2023-08-17T10:38:42;4.38;;;1.63;;
62796;SDS011;48839;48.546;-4.178;2023-08-17T10:41:10;4.90;;;1.92;;
62796;SDS011;48839;48.546;-4.178;2023-08-17T10:46:21;2.42;;;1.73;;
62796;SDS011;48839;48.546;-4.178;2023-08-17T10:48:47;3.47;;;1.88;;
62796;SDS011;48839;48.546;-4.178;2023-08-17T10:51:13;4.20;;;2.20;;
62796;SDS011;48839;48.546;-4.178;2023-08-17T10:53:40;2.55;;;2.17;;
62796;SDS011;48839;48.546;-4.178;2023-08-17T10:56:10;2.90;;;1.95;;
62796;SDS011;48839;48.546;-4.178;2023-08-17T10:58:36;2.70;;;1.50;;
62796;SDS011;48839;48.546;-4.178;2023-08-17T11:01:02;3.65;;;1.83;;
62796;SDS011;48839;48.546;-4.178;2023-08-17T11:03:29;2.70;;;1.90;;
62796;SDS011;48839;48.546;-4.178;2023-08-17T11:05:55;1.77;;;1.50;;
62796;SDS011;48839;48.546;-4.178;2023-08-17T11:11:02;2.25;;;1.80;;
62796;SDS011;48839;48.546;-4.178;2023-08-17T11:13:35;4.90;;;1.77;;
62796;SDS011;48839;48.546;-4.178;2023-08-17T11:18:28;2.28;;;1.48;;
62796;SDS011;48839;48.546;-4.178;2023-08-17T11:20:54;1.85;;;1.50;;
62796;SDS011;48839;48.546;-4.178;2023-08-17T11:23:21;4.45;;;1.80;;
62796;SDS011;48839;48.546;-4.178;2023-08-17T11:25:48;2.60;;;1.50;;
62796;SDS011;48839;48.546;-4.178;2023-08-17T11:28:16;1.75;;;1.65;;
62796;SDS011;48839;48.546;-4.178;2023-08-17T11:30:42;2.42;;;1.38;;
62796;SDS011;48839;48.546;-4.178;2023-08-17T11:33:08;3.88;;;2.05;;
62796;SDS011;48839;48.546;-4.178;2023-08-17T11:35:35;2.92;;;1.60;;
62796;SDS011;48839;48.546;-4.178;2023-08-17T11:38:01;4.55;;;1.70;;
62796;SDS011;48839;48.546;-4.178;2023-08-17T11:40:28;2.42;;;1.70;;
62796;SDS011;48839;48.546;-4.178;2023-08-17T11:42:54;3.65;;;1.95;;
62796;SDS011;48839;48.546;-4.178;2023-08-17T11:45:20;3.00;;;1.80;;
62796;SDS011;48839;48.546;-4.178;2023-08-17T11:47:47;3.65;;;2.10;;
62796;SDS011;48839;48.546;-4.178;2023-08-17T11:50:13;2.50;;;1.58;;
62796;SDS011;48839;48.546;-4.178;2023-08-17T11:52:39;2.45;;;1.85;;
62796;SDS011;48839;48.546;-4.178;2023-08-17T11:55:06;1.63;;;1.52;;
62796;SDS011;48839;48.546;-4.178;2023-08-17T11:57:33;3.75;;;1.73;;
62796;SDS011;48839;48.546;-4.178;2023-08-17T12:00:00;2.92;;;1.63;;
62796;SDS011;48839;48.546;-4.178;2023-08-17T12:02:27;2.03;;;1.58;;
62796;SDS011;48839;48.546;-4.178;2023-08-17T12:04:54;1.73;;;1.63;;
62796;SDS011;48839;48.546;-4.178;2023-08-17T12:07:21;3.35;;;2.13;;
62796;SDS011;48839;48.546;-4.178;2023-08-17T12:09:48;2.35;;;1.90;;
62796;SDS011;48839;48.546;-4.178;2023-08-17T12:12:17;4.80;;;1.80;;
62796;SDS011;48839;48.546;-4.178;2023-08-17T12:14:43;2.83;;;1.85;;
62796;SDS011;48839;48.546;-4.178;2023-08-17T12:19:42;2.40;;;1.75;;
62796;SDS011;48839;48.546;-4.178;2023-08-17T12:22:08;2.95;;;1.88;;
62796;SDS011;48839;48.546;-4.178;2023-08-17T12:24:34;3.45;;;1.90;;
62796;SDS011;48839;48.546;-4.178;2023-08-17T12:27:02;3.92;;;2.33;;
62796;SDS011;48839;48.546;-4.178;2023-08-17T12:29:28;4.35;;;2.17;;
62796;SDS011;48839;48.546;-4.178;2023-08-17T12:31:56;4.55;;;2.35;;
62796;SDS011;48839;48.546;-4.178;2023-08-17T12:34:22;3.42;;;2.42;;
62796;SDS011;48839;48.546;-4.178;2023-08-17T12:36:49;3.22;;;2.17;;
62796;SDS011;48839;48.546;-4.178;2023-08-17T12:39:15;4.60;;;2.20;;
62796;SDS011;48839;48.546;-4.178;2023-08-17T12:41:41;2.35;;;1.85;;
62796;SDS011;48839;48.546;-4.178;2023-08-17T12:44:10;4.00;;;2.22;;
62796;SDS011;48839;48.546;-4.178;2023-08-17T12:46:40;6.10;;;2.20;;
62796;SDS011;48839;48.546;-4.178;2023-08-17T12:49:06;4.53;;;2.50;;
62796;SDS011;48839;48.546;-4.178;2023-08-17T12:51:32;6.95;;;2.47;;
62796;SDS011;48839;48.546;-4.178;2023-08-17T12:53:58;2.97;;;2.08;;
62796;SDS011;48839;48.546;-4.178;2023-08-17T12:56:24;4.00;;;2.78;;
62796;SDS011;48839;48.546;-4.178;2023-08-17T12:58:50;4.22;;;2.95;;
62796;SDS011;48839;48.546;-4.178;2023-08-17T13:01:16;7.35;;;2.72;;
62796;SDS011;48839;48.546;-4.178;2023-08-17T13:03:43;5.05;;;2.40;;
62796;SDS011;48839;48.546;-4.178;2023-08-17T13:06:09;2.72;;;2.42;;
62796;SDS011;48839;48.546;-4.178;2023-08-17T13:08:35;4.03;;;2.35;;
62796;SDS011;48839;48.546;-4.178;2023-08-17T13:11:01;7.47;;;3.00;;
62796;SDS011;48839;48.546;-4.178;2023-08-17T13:13:27;6.28;;;2.95;;
62796;SDS011;48839;48.546;-4.178;2023-08-17T13:15:53;5.20;;;3.10;;
62796;SDS011;48839;48.546;-4.178;2023-08-17T13:18:19;4.50;;;2.55;;
62796;SDS011;48839;48.546;-4.178;2023-08-17T13:20:45;5.63;;;3.03;;
62796;SDS011;48839;48.546;-4.178;2023-08-17T13:23:11;6.07;;;3.30;;
62796;SDS011;48839;48.546;-4.178;2023-08-17T13:25:38;5.38;;;3.13;;
62796;SDS011;48839;48.546;-4.178;2023-08-17T13:28:04;4.78;;;2.80;;
62796;SDS011;48839;48.546;-4.178;2023-08-17T13:30:30;5.20;;;2.85;;
62796;SDS011;48839;48.546;-4.178;2023-08-17T13:32:56;7.05;;;3.67;;
62796;SDS011;48839;48.546;-4.178;2023-08-17T13:35:22;7.22;;;3.85;;
62796;SDS011;48839;48.546;-4.178;2023-08-17T13:37:54;10.00;;;4.50;;
62796;SDS011;48839;48.546;-4.178;2023-08-17T13:40:22;6.68;;;3.45;;
62796;SDS011;48839;48.546;-4.178;2023-08-17T13:42:48;8.45;;;3.25;;
62796;SDS011;48839;48.546;-4.178;2023-08-17T13:45:14;4.07;;;2.95;;
62796;SDS011;48839;48.546;-4.178;2023-08-17T13:47:40;7.22;;;3.95;;
62796;SDS011;48839;48.546;-4.178;2023-08-17T13:50:06;8.27;;;3.35;;
62796;SDS011;48839;48.546;-4.178;2023-08-17T13:52:33;6.10;;;3.50;;
62796;SDS011;48839;48.546;-4.178;2023-08-17T13:54:59;7.38;;;3.85;;
62796;SDS011;48839;48.546;-4.178;2023-08-17T13:57:25;7.03;;;4.88;;
62796;SDS011;48839;48.546;-4.178;2023-08-17T13:59:51;8.27;;;3.83;;
62796;SDS011;48839;48.546;-4.178;2023-08-17T14:02:18;8.88;;;4.15;;
62796;SDS011;48839;48.546;-4.178;2023-08-17T14:04:44;5.80;;;4.38;;
62796;SDS011;48839;48.546;-4.178;2023-08-17T14:07:10;6.03;;;4.47;;
62796;SDS011;48839;48.546;-4.178;2023-08-17T14:09:36;5.85;;;3.92;;
62796;SDS011;48839;48.546;-4.178;2023-08-17T14:12:02;4.90;;;3.65;;
62796;SDS011;48839;48.546;-4.178;2023-08-17T14:14:30;9.38;;;4.75;;
62796;SDS011;48839;48.546;-4.178;2023-08-17T14:16:56;9.35;;;6.07;;
62796;SDS011;48839;48.546;-4.178;2023-08-17T14:19:22;7.63;;;5.10;;
62796;SDS011;48839;48.546;-4.178;2023-08-17T14:21:48;7.30;;;4.53;;
62796;SDS011;48839;48.546;-4.178;2023-08-17T14:24:14;7.18;;;5.05;;
62796;SDS011;48839;48.546;-4.178;2023-08-17T14:26:40;8.63;;;4.97;;
62796;SDS011;48839;48.546;-4.178;2023-08-17T14:29:06;8.60;;;5.35;;
62796;SDS011;48839;48.546;-4.178;2023-08-17T14:31:32;9.98;;;5.43;;
62796;SDS011;48839;48.546;-4.178;2023-08-17T14:33:58;11.88;;;5.55;;
62796;SDS011;48839;48.546;-4.178;2023-08-17T14:36:24;6.55;;;5.00;;
62796;SDS011;48839;48.546;-4.178;2023-08-17T14:38:50;8.57;;;5.60;;
62796;SDS011;48839;48.546;-4.178;2023-08-17T14:41:16;8.18;;;4.43;;